Latest  Newer  Older  Last 2 hours animation  Current image  Latest image 
Rain/snow radar  Infrared sat images 
Real-time lightning map

All time is UTC (add 2 hours to UTC in wintertime, 3 hours to UTC in DST for Latvia local time)

2020/04/02 20:20 EVRA 022020Z 21016KT 9999 SCT029 07/00 Q0993 NOSIG
2020/04/02 20:20 EVLA 022020Z AUTO 21026KT 9999 OVC051/// 07/02 Q0992
2020/04/02 20:20 EVVA 022020Z AUTO 22029G44KT 9999 OVC028 07/03 Q0988
2020/04/02 20:20 EYKA 022020Z 22009KT 160V250 CAVOK 06/M02 Q1001
2020/04/02 20:20 EYPA 022020Z AUTO 21014G24KT 190V260 9999 BKN057/// 06/02 Q0996
2020/04/02 20:20 EYSA 022020Z 21019G29KT CAVOK 06/M00 Q0997 BLU NOSIG
2020/04/02 20:20 EYVI 022020Z 21013KT CAVOK 05/M02 Q1002 NOSIG

2020/04/02 19:50 EEKE 021950Z AUTO 22025G43KT 9999NDV BKN019 06/03 Q0984
2020/04/02 10:50 EEPU 021050Z 22019KT 9999 BKN018 08/04 Q0992
2020/04/02 20:20 EETN 022020Z 21021G34KT 180V240 9999 OVC021 06/01 Q0980 R08/09//95 TEMPO 21026G40KT
2020/04/02 19:50 EETU 021950Z AUTO 22021KT 9999 FEW034/// BKN055/// 05/M01 Q0988
   RIGA AIRPORT     EVRA               56 55N  023 58E   10   X     T          6 LV
   LIEPAJA INTL     EVLA        26406  56 31N  021 06E    4   X                8 LV
   VENTPILS         EVVA               57 21N  021 33E    6   X                8 LV
   KAUNAS           EYKA               54 54N  023 55E   77   X     T          6 LT
   PALANGA INTL     EYPA               55 55N  021 03E   10   X                6 LT
   SIAULIAI INTL    EYSA               55 54N  023 24E  135   X     T          6 LT
   VILNIUS INTL     EYVI        26730  54 38N  025 17E  197   X     T          6 LT
   KARDLA           EEKA        26116  58 59N  022 50E    4   X                8 EE
   KURESSAARE       EEKE               58 14N  022 31E    4   X                8 EE
   PARNU            EEPU               58 25N  024 28E   14   X                8 EE
   TALLINN          EETN        26038  59 24N  024 49E   40   X     T          8 EE
   TARTU            EETU               58 19N  026 41E   67   X                8 EE

cloud coverage image from sat24.com and METAR data from weather.noaa.gov